Time;durP1;ratioP1;P1;durP2;ratioP2;P2;SDS_P1;SDS_P2;PMS_P1;PMS_P2;Temp;Humidity;BMP_temperature;BMP_pressure;BME280_temperature;BME280_humidity;BME280_pressure;Samples;Min_cycle;Max_cycle;Signal;HPM_P1;HPM_P2
2023/10/20 00:00:41;;;;;;;4.80;2.55;;;;;;;19.10;59.78;98682.94;4998757;28;20060;-44
2023/10/20 00:03:08;;;;;;;4.53;2.53;;;;;;;19.09;59.39;98698.22;4999765;28;20488;-43
2023/10/20 00:05:35;;;;;;;5.22;2.70;;;;;;;19.09;59.78;98697.38;4997982;28;20050;-45
2023/10/20 00:08:03;;;;;;;4.80;2.75;;;;;;;19.10;59.25;98688.31;5001163;28;20042;-43
2023/10/20 00:10:35;;;;;;;3.92;2.95;;;;;;;19.09;59.59;98682.09;5000433;28;21527;-44
2023/10/20 00:13:06;;;;;;;5.80;3.03;;;;;;;19.09;59.56;98671.34;5002154;28;20049;-42
2023/10/20 00:15:33;;;;;;;3.20;2.50;;;;;;;19.10;59.30;98661.47;5005034;28;20056;-44
2023/10/20 00:18:01;;;;;;;3.83;2.85;;;;;;;19.10;59.15;98656.09;5001505;28;20057;-44
2023/10/20 00:20:28;;;;;;;5.47;2.90;;;;;;;19.09;59.86;98671.34;5000893;28;20089;-43
2023/10/20 00:22:55;;;;;;;4.85;3.10;;;;;;;19.10;59.81;98672.22;5001423;28;20050;-43
2023/10/20 00:25:22;;;;;;;4.00;2.92;;;;;;;19.10;59.48;98674.91;4998626;28;20140;-43
2023/10/20 00:27:49;;;;;;;5.65;3.05;;;;;;;19.10;59.25;98686.47;4999159;28;20050;-44
2023/10/20 00:30:16;;;;;;;5.35;3.05;;;;;;;19.09;59.28;98662.47;5001748;28;20058;-41
2023/10/20 00:32:43;;;;;;;4.25;2.65;;;;;;;19.10;59.37;98672.22;4997629;28;20050;-44
2023/10/20 00:35:13;;;;;;;4.15;3.22;;;;;;;19.09;59.10;98670.53;4999164;28;20137;-43
2023/10/20 00:37:40;;;;;;;5.28;2.97;;;;;;;19.09;59.66;98665.16;4998587;28;20047;-42
2023/10/20 00:40:09;;;;;;;4.40;2.95;;;;;;;19.09;59.40;98657.13;4995410;28;20077;-44
2023/10/20 00:42:37;;;;;;;5.68;3.30;;;;;;;19.09;59.33;98663.31;4996597;28;20050;-42
2023/10/20 00:45:04;;;;;;;4.82;3.40;;;;;;;19.09;59.81;98665.16;4995952;28;20050;-44
2023/10/20 00:47:32;;;;;;;3.85;2.90;;;;;;;19.09;59.17;98660.63;5003758;28;20446;-46
2023/10/20 00:49:59;;;;;;;4.55;3.22;;;;;;;19.09;59.42;98657.94;4997459;28;20125;-43
2023/10/20 00:52:29;;;;;;;4.50;2.97;;;;;;;19.09;59.51;98647.19;4996125;28;20054;-43
2023/10/20 00:54:56;;;;;;;4.13;3.20;;;;;;;19.09;59.14;98646.38;4997276;28;20045;-46
2023/10/20 00:57:23;;;;;;;3.83;2.80;;;;;;;19.09;59.51;98649.06;4998970;28;20105;-43
2023/10/20 00:59:50;;;;;;;4.70;3.30;;;;;;;19.09;59.72;98644.50;4998685;28;20573;-43
2023/10/20 01:02:16;;;;;;;5.63;3.17;;;;;;;19.09;59.44;98641.81;4996390;28;20053;-42
2023/10/20 01:04:43;;;;;;;4.05;3.10;;;;;;;19.09;59.23;98631.09;4986264;28;20388;-45
2023/10/20 01:07:10;;;;;;;4.28;2.90;;;;;;;19.09;59.78;98620.34;4994807;28;20046;-42
2023/10/20 01:09:37;;;;;;;4.57;3.63;;;;;;;19.09;59.41;98622.22;5000742;28;20046;-46
2023/10/20 01:12:04;;;;;;;3.58;3.10;;;;;;;19.09;59.61;98606.91;5000648;28;20042;-42
2023/10/20 01:14:30;;;;;;;6.20;3.00;;;;;;;19.09;59.13;98604.22;4998863;28;20452;-43
2023/10/20 01:16:58;;;;;;;4.50;3.13;;;;;;;19.09;59.63;98600.72;4994106;28;20049;-43
2023/10/20 01:19:24;;;;;;;4.53;3.20;;;;;;;19.09;59.27;98590.00;5003660;28;20346;-45
2023/10/20 01:21:51;;;;;;;4.80;3.40;;;;;;;19.07;59.36;98598.28;4998494;28;20073;-42
2023/10/20 01:24:17;;;;;;;3.67;2.72;;;;;;;19.07;59.88;98600.13;4997817;28;20406;-43
2023/10/20 01:26:44;;;;;;;3.65;2.72;;;;;;;19.07;59.42;98600.97;4998131;28;20050;-43
2023/10/20 01:29:12;;;;;;;3.95;2.90;;;;;;;19.06;59.32;98602.00;4996488;28;20517;-43
2023/10/20 01:31:39;;;;;;;5.00;3.08;;;;;;;19.06;59.28;98591.25;4999207;28;20100;-42
2023/10/20 01:34:05;;;;;;;3.92;2.95;;;;;;;19.06;59.49;98590.44;4996937;28;20050;-42
2023/10/20 01:36:32;;;;;;;4.38;2.83;;;;;;;19.06;60.08;98580.53;4997268;28;20058;-44
2023/10/20 01:38:59;;;;;;;3.33;3.03;;;;;;;19.06;59.32;98579.69;5000331;28;20108;-43
2023/10/20 01:41:26;;;;;;;3.63;3.28;;;;;;;19.04;59.62;98571.84;5003527;28;20045;-45
2023/10/20 01:43:53;;;;;;;3.92;3.53;;;;;;;19.06;59.74;98577.84;5000608;28;20516;-42
2023/10/20 01:46:20;;;;;;;3.95;3.38;;;;;;;19.05;59.25;98578.84;4998226;28;20081;-42
2023/10/20 01:48:46;;;;;;;4.85;3.40;;;;;;;19.04;59.58;98571.84;4999722;28;20191;-43
2023/10/20 01:51:13;;;;;;;3.72;3.35;;;;;;;19.03;59.80;98572.06;5002738;28;20144;-42
2023/10/20 01:53:40;;;;;;;5.95;3.10;;;;;;;19.03;59.43;98567.53;5001724;28;20050;-42
2023/10/20 01:56:06;;;;;;;3.92;3.10;;;;;;;19.01;59.68;98564.22;4997607;28;20053;-42
2023/10/20 01:58:34;;;;;;;4.45;3.42;;;;;;;19.01;59.86;98561.53;5003424;28;20049;-43
2023/10/20 02:01:00;;;;;;;4.22;3.45;;;;;;;19.01;59.85;98563.41;5001063;28;20046;-44
2023/10/20 02:03:27;;;;;;;4.35;3.42;;;;;;;19.01;60.03;98560.72;4999388;28;20058;-42
2023/10/20 02:05:55;;;;;;;3.88;3.15;;;;;;;19.01;59.84;98558.84;4997620;28;20521;-43
2023/10/20 02:08:21;;;;;;;6.40;3.42;;;;;;;18.99;59.82;98545.66;5006558;28;20416;-42
2023/10/20 02:10:48;;;;;;;4.55;3.50;;;;;;;18.99;59.34;98536.78;5003077;28;20049;-44
2023/10/20 02:13:15;;;;;;;4.38;3.30;;;;;;;18.98;60.16;98529.78;5003815;28;20112;-44
2023/10/20 02:15:48;;;;;;;6.28;3.85;;;;;;;18.96;59.57;98521.09;5003927;28;20101;-42
2023/10/20 02:18:15;;;;;;;5.20;4.00;;;;;;;18.96;59.64;98515.72;5001592;28;20053;-44
2023/10/20 02:20:43;;;;;;;4.05;3.33;;;;;;;18.96;60.28;98502.31;4999657;28;20097;-42
2023/10/20 02:23:11;;;;;;;5.70;3.95;;;;;;;18.95;60.17;98497.97;5004998;28;20042;-43
2023/10/20 02:25:38;;;;;;;7.88;4.28;;;;;;;18.94;59.73;98490.97;5001005;28;20096;-42
2023/10/20 02:28:04;;;;;;;5.43;4.00;;;;;;;18.93;60.50;98486.63;5001399;28;20447;-42
2023/10/20 02:30:32;;;;;;;5.15;3.95;;;;;;;18.92;59.85;98471.56;5001427;28;20130;-44
2023/10/20 02:33:01;;;;;;;5.70;3.75;;;;;;;18.91;60.47;98473.44;4997066;28;20154;-42
2023/10/20 02:35:28;;;;;;;5.22;3.83;;;;;;;18.90;60.13;98463.75;4995236;28;20054;-43
2023/10/20 02:37:55;;;;;;;4.72;3.70;;;;;;;18.89;59.90;98459.38;5001420;28;20049;-42
2023/10/20 02:40:21;;;;;;;5.15;3.90;;;;;;;18.90;59.89;98460.25;5003311;28;20046;-42
2023/10/20 02:42:48;;;;;;;5.70;4.03;;;;;;;18.89;60.38;98450.53;5005663;28;20393;-44
2023/10/20 02:45:15;;;;;;;5.43;4.20;;;;;;;18.87;60.03;98448.06;5004918;28;20081;-42
2023/10/20 02:47:41;;;;;;;5.50;4.35;;;;;;;18.87;60.15;98452.63;5002621;28;20046;-43
2023/10/20 02:50:08;;;;;;;5.18;4.28;;;;;;;18.86;60.20;98446.44;5000510;28;20062;-41
2023/10/20 02:52:35;;;;;;;5.15;4.07;;;;;;;18.86;59.97;98442.94;5007763;28;20358;-42
2023/10/20 02:55:02;;;;;;;5.47;4.43;;;;;;;18.85;60.22;98433.22;4999490;28;20049;-43
2023/10/20 02:57:29;;;;;;;5.40;4.22;;;;;;;18.83;60.46;98422.69;5001213;28;20092;-45
2023/10/20 02:59:56;;;;;;;5.78;4.50;;;;;;;18.83;60.26;98421.88;5003814;28;20100;-42
2023/10/20 03:02:22;;;;;;;5.35;4.18;;;;;;;18.82;60.13;98428.31;5005379;28;20054;-42
2023/10/20 03:04:55;;;;;;;6.28;4.75;;;;;;;18.81;60.34;98421.25;5000134;28;20438;-42
2023/10/20 03:07:27;;;;;;;4.67;4.13;;;;;;;18.80;60.22;98414.25;5000519;28;20056;-41
2023/10/20 03:09:54;;;;;;;4.97;3.78;;;;;;;18.80;60.13;98408.91;4996662;28;20538;-41
2023/10/20 03:12:20;;;;;;;6.15;4.68;;;;;;;18.78;60.63;98411.81;5000354;28;20125;-42
2023/10/20 03:14:47;;;;;;;5.32;4.68;;;;;;;18.78;60.54;98416.34;4999050;28;20517;-44
2023/10/20 03:17:14;;;;;;;5.32;4.57;;;;;;;18.77;60.49;98420.88;5003467;28;20085;-41
2023/10/20 03:19:43;;;;;;;7.28;5.13;;;;;;;18.76;60.38;98416.56;4997882;28;20064;-42
2023/10/20 03:22:09;;;;;;;6.15;4.30;;;;;;;18.76;60.52;98407.69;5004592;28;20042;-42
2023/10/20 03:24:36;;;;;;;6.28;4.82;;;;;;;18.74;60.75;98400.69;4999881;28;20049;-43
2023/10/20 03:27:03;;;;;;;5.10;4.13;;;;;;;18.73;60.31;98391.00;4998359;28;20057;-45
2023/10/20 03:29:29;;;;;;;8.38;5.28;;;;;;;18.73;60.65;98388.31;5004052;28;20046;-42
2023/10/20 03:31:56;;;;;;;5.82;4.43;;;;;;;18.72;61.11;98383.16;4993379;28;20050;-44
2023/10/20 03:34:23;;;;;;;7.22;5.18;;;;;;;18.70;60.15;98386.06;4997258;28;20050;-42
2023/10/20 03:36:52;;;;;;;6.75;5.15;;;;;;;18.70;60.33;98383.38;4997418;28;20105;-43
2023/10/20 03:39:21;;;;;;;6.28;4.85;;;;;;;18.69;60.50;98375.50;5001212;28;20479;-41
2023/10/20 03:41:49;;;;;;;7.65;5.03;;;;;;;18.68;60.69;98374.69;4998436;28;20172;-43
2023/10/20 03:44:16;;;;;;;7.70;5.57;;;;;;;18.68;60.69;98365.81;5005227;28;20050;-44
2023/10/20 03:46:48;;;;;;;6.05;4.70;;;;;;;18.66;60.48;98371.41;4997429;28;20398;-42
2023/10/20 03:49:18;;;;;;;6.70;5.07;;;;;;;18.67;60.87;98372.22;4999592;28;20054;-44
2023/10/20 03:51:51;;;;;;;6.90;5.18;;;;;;;18.66;60.93;98375.94;5000271;28;20049;-42
2023/10/20 03:54:18;;;;;;;6.63;5.07;;;;;;;18.65;60.82;98376.97;5004767;28;20050;-42
2023/10/20 03:56:45;;;;;;;7.65;5.15;;;;;;;18.64;60.87;98368.09;5002257;28;20046;-42
2023/10/20 03:59:14;;;;;;;6.85;5.05;;;;;;;18.63;60.66;98353.06;4998576;28;20042;-44
2023/10/20 04:01:41;;;;;;;8.15;5.57;;;;;;;18.62;60.39;98343.38;4999459;28;20374;-42
2023/10/20 04:04:09;;;;;;;7.05;5.00;;;;;;;18.62;61.11;98326.44;5001883;28;20046;-44
2023/10/20 04:06:36;;;;;;;7.50;5.60;;;;;;;18.61;60.75;98340.88;4998905;28;20394;-42
2023/10/20 04:09:09;;;;;;;9.77;5.57;;;;;;;18.59;60.86;98342.97;4999029;28;20125;-43
2023/10/20 04:11:37;;;;;;;6.17;5.30;;;;;;;18.59;60.49;98348.34;4996686;28;20057;-43
2023/10/20 04:14:07;;;;;;;8.60;5.45;;;;;;;18.57;60.90;98340.50;5004506;28;20140;-43
2023/10/20 04:16:41;;;;;;;7.32;5.70;;;;;;;18.57;61.21;98332.44;4999838;28;20053;-45
2023/10/20 04:19:09;;;;;;;7.53;5.40;;;;;;;18.58;60.93;98333.31;4997725;28;20312;-43
2023/10/20 04:21:38;;;;;;;7.30;5.40;;;;;;;18.57;60.92;98318.22;5002700;28;20046;-42
2023/10/20 04:24:09;;;;;;;7.07;5.03;;;;;;;18.55;60.93;98307.72;4999399;28;20053;-43
2023/10/20 04:26:37;;;;;;;7.20;5.25;;;;;;;18.55;60.98;98299.66;5002091;28;20046;-44
2023/10/20 04:43:04;;;;;;;6.80;5.45;;;;;;;18.52;60.88;98305.47;5000977;28;20074;-42
2023/10/20 04:54:02;;;;;;;6.35;4.95;;;;;;;18.49;60.82;98287.97;4962473;28;20055;-44
2023/10/20 04:57:17;;;;;;;7.82;5.78;;;;;;;18.49;60.98;98281.75;4962294;28;20051;-42
2023/10/20 04:59:31;;;;;;;7.85;5.85;;;;;;;18.48;61.11;98266.72;4991783;28;20446;-43
2023/10/20 05:02:03;;;;;;;8.27;5.88;;;;;;;18.47;60.95;98270.44;5003979;28;20150;-42
2023/10/20 05:04:36;;;;;;;8.25;5.85;;;;;;;18.46;60.89;98260.75;4996571;28;20149;-44
2023/10/20 05:07:05;;;;;;;7.72;5.68;;;;;;;18.45;61.13;98253.72;4996524;28;20054;-42
2023/10/20 05:09:35;;;;;;;7.35;5.30;;;;;;;18.45;60.93;98257.25;5002475;28;20054;-41
2023/10/20 05:12:02;;;;;;;8.68;5.72;;;;;;;18.44;60.81;98249.41;5000269;28;20057;-42
2023/10/20 05:14:28;;;;;;;7.03;5.15;;;;;;;18.44;61.07;98249.41;5000150;28;20111;-43
2023/10/20 05:16:55;;;;;;;7.63;5.57;;;;;;;18.43;61.35;98240.56;4996499;28;20072;-42
2023/10/20 05:19:23;;;;;;;8.10;5.60;;;;;;;18.43;61.00;98245.09;4998399;28;20100;-43
2023/10/20 05:21:50;;;;;;;8.38;5.93;;;;;;;18.42;61.04;98232.75;4997332;28;20339;-41
2023/10/20 05:24:17;;;;;;;8.13;5.65;;;;;;;18.42;61.13;98224.69;4999057;28;20050;-43
2023/10/20 05:26:46;;;;;;;8.80;5.60;;;;;;;18.41;61.04;98218.50;4998126;28;20050;-41
2023/10/20 05:29:14;;;;;;;8.60;5.80;;;;;;;18.41;61.76;98214.97;5002078;28;20078;-42
2023/10/20 05:31:41;;;;;;;8.20;5.93;;;;;;;18.40;60.98;98206.13;5000435;28;20042;-44
2023/10/20 05:34:07;;;;;;;9.50;5.53;;;;;;;18.41;61.14;98206.94;5002865;28;20108;-43
2023/10/20 05:36:34;;;;;;;8.52;5.60;;;;;;;18.40;61.71;98205.31;4997059;28;20046;-42
2023/10/20 05:39:00;;;;;;;9.35;6.57;;;;;;;18.39;61.59;98201.81;5000052;28;20049;-43
2023/10/20 05:41:29;;;;;;;8.40;5.97;;;;;;;18.37;61.56;98198.53;4999846;28;20067;-42
2023/10/20 05:43:56;;;;;;;7.65;5.57;;;;;;;18.39;61.48;98211.72;4998673;28;20050;-41
2023/10/20 05:46:23;;;;;;;7.30;5.38;;;;;;;18.38;61.49;98200.16;5003521;28;20064;-43
2023/10/20 05:48:51;;;;;;;7.70;5.90;;;;;;;18.37;61.53;98200.38;5003688;28;20470;-42
2023/10/20 05:51:18;;;;;;;8.10;5.55;;;;;;;18.36;61.44;98215.66;5003119;28;20061;-41
2023/10/20 05:53:44;;;;;;;9.20;6.15;;;;;;;18.36;61.23;98217.50;5002060;28;20074;-43
2023/10/20 05:56:11;;;;;;;10.27;5.80;;;;;;;18.35;61.41;98207.84;4997538;28;20125;-42
2023/10/20 05:58:38;;;;;;;8.35;6.05;;;;;;;18.35;61.55;98215.88;5002527;28;20050;-45
2023/10/20 06:01:11;;;;;;;11.60;6.32;;;;;;;18.34;61.45;98214.25;5002154;28;20041;-43
2023/10/20 06:03:39;;;;;;;10.38;6.65;;;;;;;18.33;61.32;98210.75;5011820;28;20144;-42
2023/10/20 06:06:05;;;;;;;9.75;6.22;;;;;;;18.33;61.47;98210.75;5007535;28;20062;-41
2023/10/20 06:08:32;;;;;;;9.82;6.30;;;;;;;18.33;61.32;98217.94;4998701;28;20073;-42
2023/10/20 06:11:03;;;;;;;9.43;6.32;;;;;;;18.32;61.30;98211.75;5002003;28;20396;-42
2023/10/20 06:13:34;;;;;;;7.97;6.10;;;;;;;18.33;61.65;98212.59;4999478;28;20058;-43
2023/10/20 06:16:08;;;;;;;10.80;5.95;;;;;;;18.31;61.40;98199.41;5004576;28;20104;-44
2023/10/20 06:18:38;;;;;;;9.52;6.07;;;;;;;18.32;61.41;98200.22;5002407;28;20050;-42
2023/10/20 06:21:10;;;;;;;13.52;7.15;;;;;;;18.30;61.14;98187.03;4999896;28;20406;-44
2023/10/20 06:23:37;;;;;;;9.70;6.25;;;;;;;18.31;61.32;98190.53;5001504;28;20100;-42
2023/10/20 06:26:03;;;;;;;10.63;6.20;;;;;;;18.30;61.29;98200.44;5003224;28;20041;-42
2023/10/20 06:28:30;;;;;;;11.35;6.68;;;;;;;18.30;61.42;98202.31;4997084;28;20124;-49
2023/10/20 06:31:00;;;;;;;10.10;6.65;;;;;;;18.29;61.48;98206.88;5002875;28;20050;-42
2023/10/20 06:33:33;;;;;;;9.27;5.82;;;;;;;18.29;61.56;98208.69;4999389;28;20054;-43
2023/10/20 06:36:10;;;;;;;8.45;5.90;;;;;;;18.28;61.13;98221.28;5000362;28;20091;-44
2023/10/20 06:38:45;;;;;;;9.40;6.18;;;;;;;18.28;61.95;98201.69;5005481;28;20405;-44
2023/10/20 06:41:15;;;;;;;10.30;6.03;;;;;;;18.27;61.47;98194.72;5002760;28;20038;-42
2023/10/20 06:43:42;;;;;;;8.57;6.28;;;;;;;18.28;61.30;98190.97;4997258;28;20148;-46
2023/10/20 06:46:09;;;;;;;9.40;6.25;;;;;;;18.27;61.81;98205.44;5005456;28;20060;-44
2023/10/20 06:48:36;;;;;;;10.23;6.40;;;;;;;18.27;61.46;98181.31;5000368;28;20050;-44
2023/10/20 06:51:03;;;;;;;9.20;5.93;;;;;;;18.26;61.82;98183.16;5002050;28;20076;-42
2023/10/20 06:53:30;;;;;;;7.80;5.47;;;;;;;18.25;61.70;98192.22;4999120;28;20050;-43
2023/10/20 06:55:58;;;;;;;11.13;6.97;;;;;;;18.23;61.93;98181.72;4999489;28;20050;-43
2023/10/20 06:58:41;;;;;;;7.80;5.53;;;;;;;18.23;61.80;98173.69;5000237;28;20603;-42
2023/10/20 07:01:08;;;;;;;8.95;5.93;;;;;;;18.23;61.84;98180.91;4998511;28;20050;-44
2023/10/20 07:03:34;;;;;;;12.30;6.07;;;;;;;18.23;61.91;98176.38;5000009;28;20383;-42
2023/10/20 07:06:07;;;;;;;8.70;5.63;;;;;;;18.24;61.83;98186.03;4996479;28;20085;-43
2023/10/20 07:08:34;;;;;;;9.25;6.55;;;;;;;18.23;61.94;98179.06;5003685;28;20480;-43
2023/10/20 07:11:02;;;;;;;10.40;6.30;;;;;;;18.22;61.90;98172.06;5006636;28;20442;-45
2023/10/20 07:13:28;;;;;;;9.65;5.90;;;;;;;18.22;62.31;98166.69;5002029;28;20220;-45
2023/10/20 07:15:56;;;;;;;10.68;6.57;;;;;;;18.21;62.34;98165.06;4998261;28;20046;-43
2023/10/20 07:18:24;;;;;;;9.82;5.93;;;;;;;18.20;62.33;98176.81;5000013;28;20064;-44
2023/10/20 07:20:52;;;;;;;11.43;6.32;;;;;;;18.21;62.21;98180.31;4999045;28;20050;-44
2023/10/20 07:23:23;;;;;;;10.02;6.35;;;;;;;18.20;62.53;98171.44;4998803;28;20077;-44
2023/10/20 07:25:49;;;;;;;9.30;5.88;;;;;;;18.19;62.68;98177.84;5002309;28;20517;-44
2023/10/20 07:28:16;;;;;;;12.88;7.03;;;;;;;18.19;62.33;98172.50;5001442;28;20050;-42
2023/10/20 07:30:43;;;;;;;9.23;5.68;;;;;;;18.18;62.71;98173.53;5005688;28;20190;-45
2023/10/20 07:33:09;;;;;;;9.77;5.70;;;;;;;18.18;62.71;98172.72;5007539;28;20431;-42
2023/10/20 07:35:38;;;;;;;10.20;6.10;;;;;;;18.18;62.55;98165.50;5002571;28;20058;-42
2023/10/20 07:38:05;;;;;;;9.73;5.60;;;;;;;18.17;62.61;98163.88;5002886;28;20350;-43
2023/10/20 07:40:34;;;;;;;9.20;5.90;;;;;;;18.16;62.98;98156.84;5005951;28;20041;-43
2023/10/20 07:43:05;;;;;;;8.70;4.97;;;;;;;18.17;62.89;98155.81;5006146;28;20045;-43
2023/10/20 07:45:42;;;;;;;9.57;5.10;;;;;;;18.14;62.93;98160.78;5002198;28;20053;-41
2023/10/20 07:48:10;;;;;;;8.60;5.63;;;;;;;18.15;62.57;98165.94;5003610;28;20343;-42
2023/10/20 07:50:37;;;;;;;10.10;5.53;;;;;;;18.14;62.79;98166.97;4999167;28;20508;-43
2023/10/20 07:53:05;;;;;;;5.95;4.45;;;;;;;18.13;62.53;98157.31;5002499;28;20411;-41
2023/10/20 07:55:32;;;;;;;8.13;5.00;;;;;;;18.13;62.60;98170.69;4999081;28;20046;-44
2023/10/20 07:57:58;;;;;;;10.00;4.97;;;;;;;18.13;62.39;98170.69;5003869;28;20104;-42
2023/10/20 08:00:25;;;;;;;19.83;7.13;;;;;;;18.11;62.70;98156.69;4998066;28;20346;-42
2023/10/20 08:02:51;;;;;;;19.13;6.82;;;;;;;18.11;62.72;98148.66;5007240;28;20498;-44
2023/10/20 08:05:24;;;;;;;18.23;6.47;;;;;;;18.10;62.77;98149.69;5003792;28;20049;-43
2023/10/20 08:07:53;;;;;;;15.35;6.88;;;;;;;18.11;63.03;98150.50;5002969;28;20370;-44
2023/10/20 08:10:21;;;;;;;17.60;7.45;;;;;;;18.11;62.73;98143.28;5001589;28;20049;-42
2023/10/20 08:12:48;;;;;;;24.50;7.28;;;;;;;18.10;62.95;98141.66;5000379;28;20061;-42
2023/10/20 08:15:16;;;;;;;20.65;7.88;;;;;;;18.10;62.48;98125.56;4998616;28;20511;-45
2023/10/20 08:17:44;;;;;;;26.13;7.88;;;;;;;18.12;63.03;98128.81;5001743;28;20046;-41
2023/10/20 08:20:12;;;;;;;18.45;7.03;;;;;;;18.14;63.02;98126.75;5000094;28;20572;-45
2023/10/20 08:22:39;;;;;;;23.88;7.53;;;;;;;18.19;63.23;98115.38;4997263;28;20074;-51
2023/10/20 08:25:07;;;;;;;18.00;7.22;;;;;;;18.20;63.48;98112.47;4965147;28;20506;-45
2023/10/20 08:27:33;;;;;;;19.55;7.28;;;;;;;18.23;62.79;98119.25;5008967;28;20054;-44
2023/10/20 08:30:00;;;;;;;17.27;7.03;;;;;;;18.30;62.81;98121.88;4995463;28;20054;-46
2023/10/20 08:32:27;;;;;;;14.55;5.93;;;;;;;18.33;62.46;98124.94;4997643;28;20057;-45
2023/10/20 08:34:53;;;;;;;14.63;6.20;;;;;;;18.37;62.53;98136.00;4992545;28;20141;-44
2023/10/20 08:37:20;;;;;;;13.77;6.13;;;;;;;18.41;62.93;98130.00;4999577;28;20054;-45
2023/10/20 08:39:47;;;;;;;13.55;5.40;;;;;;;18.44;62.22;98123.38;5000253;28;20046;-46
2023/10/20 08:42:18;;;;;;;13.32;5.88;;;;;;;18.46;62.16;98129.34;4995194;28;20089;-44
2023/10/20 08:44:45;;;;;;;10.57;5.25;;;;;;;18.49;62.10;98119.00;4971625;28;20088;-45
2023/10/20 08:47:16;;;;;;;8.13;5.13;;;;;;;18.49;62.12;98108.25;4996783;28;20057;-45
2023/10/20 08:49:43;;;;;;;11.10;5.03;;;;;;;18.53;61.71;98110.47;4994186;28;20159;-45
2023/10/20 08:52:14;;;;;;;14.18;6.13;;;;;;;18.52;61.55;98106.97;4991060;28;20060;-44
2023/10/20 08:54:41;;;;;;;9.05;5.38;;;;;;;18.55;61.44;98117.25;4999032;28;20058;-44
2023/10/20 08:57:08;;;;;;;12.65;4.97;;;;;;;18.56;61.54;98118.91;4999953;28;20050;-45
2023/10/20 08:59:35;;;;;;;11.38;5.10;;;;;;;18.58;61.41;98110.66;4996915;28;20813;-44
2023/10/20 09:02:03;;;;;;;10.55;4.47;;;;;;;18.59;60.85;98104.22;5001781;28;20049;-45
2023/10/20 09:04:31;;;;;;;8.98;4.40;;;;;;;18.61;61.19;98099.44;4962313;28;20054;-43
2023/10/20 09:07:00;;;;;;;8.70;4.50;;;;;;;18.62;61.51;98106.47;5009366;28;20060;-47
2023/10/20 09:09:29;;;;;;;8.80;4.65;;;;;;;18.64;60.53;98104.38;5001741;28;20363;-43
2023/10/20 09:11:55;;;;;;;10.60;4.32;;;;;;;18.65;60.85;98111.38;5001100;28;20081;-46
2023/10/20 09:14:24;;;;;;;7.72;4.28;;;;;;;18.65;60.49;98098.78;5001983;28;20050;-44
2023/10/20 09:16:53;;;;;;;10.88;4.45;;;;;;;18.66;60.65;98108.47;4996665;28;20061;-43
2023/10/20 09:19:20;;;;;;;10.23;4.00;;;;;;;18.67;61.15;98110.09;4997259;28;20477;-46
2023/10/20 09:21:47;;;;;;;11.65;4.57;;;;;;;18.69;60.71;98115.25;5000939;28;20541;-46
2023/10/20 09:24:14;;;;;;;7.18;3.78;;;;;;;18.68;60.35;98106.38;4973098;28;20140;-44
2023/10/20 09:26:41;;;;;;;7.40;3.38;;;;;;;18.69;60.42;98108.03;4987719;28;20437;-46
2023/10/20 09:29:08;;;;;;;7.82;3.92;;;;;;;18.71;59.82;98105.16;4997777;28;20148;-45
2023/10/20 09:31:37;;;;;;;10.13;4.18;;;;;;;18.72;60.19;98106.78;4995638;28;20058;-45
2023/10/20 09:34:07;;;;;;;8.85;4.18;;;;;;;18.72;60.28;98104.91;4995897;28;20552;-45
2023/10/20 09:36:35;;;;;;;7.55;3.55;;;;;;;18.71;59.89;98097.91;4993155;28;20082;-44
2023/10/20 09:39:08;;;;;;;8.02;3.20;;;;;;;18.72;60.39;98104.09;4994078;28;20104;-47
2023/10/20 09:41:42;;;;;;;7.82;3.30;;;;;;;18.73;59.73;98097.69;4997869;28;20054;-45
2023/10/20 09:44:19;;;;;;;7.47;3.50;;;;;;;18.73;59.78;98092.31;4993125;28;20046;-46
2023/10/20 09:47:06;;;;;;;6.90;3.35;;;;;;;18.73;59.76;98095.00;5012098;28;20181;-48
2023/10/20 09:49:35;;;;;;;6.55;3.28;;;;;;;18.74;60.26;98093.97;4990516;28;21131;-45
2023/10/20 09:52:05;;;;;;;5.55;2.97;;;;;;;18.76;59.68;98091.06;4994592;28;20137;-45
2023/10/20 09:54:34;;;;;;;4.90;2.70;;;;;;;18.77;60.01;98084.63;4998012;28;20081;-44
2023/10/20 09:57:03;;;;;;;5.15;3.00;;;;;;;18.76;59.91;98088.38;5000309;28;20050;-45
2023/10/20 09:59:30;;;;;;;5.53;3.10;;;;;;;18.77;59.86;98093.50;4995835;28;20434;-45
2023/10/20 10:01:59;;;;;;;7.72;2.80;;;;;;;18.77;60.06;98092.69;4998159;28;20104;-46
2023/10/20 10:04:36;;;;;;;6.00;2.95;;;;;;;18.77;59.82;98090.81;4967028;28;20137;-46
2023/10/20 10:07:07;;;;;;;5.03;2.47;;;;;;;18.78;60.11;98084.44;4988199;28;20054;-44
2023/10/20 10:09:38;;;;;;;8.38;3.10;;;;;;;18.83;59.84;98075.69;4998229;28;20134;-45
2023/10/20 10:12:16;;;;;;;4.95;2.70;;;;;;;18.89;60.25;98058.66;4996731;28;20075;-44
2023/10/20 10:14:56;;;;;;;4.55;2.80;;;;;;;19.02;59.81;98066.56;4992847;28;20061;-47
2023/10/20 10:17:23;;;;;;;7.30;2.60;;;;;;;19.12;59.70;98058.75;4991151;28;20049;-45
2023/10/20 10:19:50;;;;;;;6.30;2.92;;;;;;;19.21;59.60;98061.94;4993692;28;20046;-44
2023/10/20 10:22:24;;;;;;;9.20;2.92;;;;;;;19.29;59.31;98061.59;4994243;28;20056;-47
2023/10/20 10:24:51;;;;;;;;;;;;;;;19.37;59.43;98060.47;4965773;28;20049;-44
2023/10/20 10:27:19;;;;;;;5.70;2.78;;;;;;;19.45;58.95;98063.63;5008793;28;20020;-44
2023/10/20 10:30:00;;;;;;;4.93;2.47;;;;;;;19.52;59.03;98057.34;5000170;28;20050;-44
2023/10/20 10:32:32;;;;;;;3.65;2.42;;;;;;;19.59;58.50;98047.31;5002638;28;20267;-45
2023/10/20 10:35:01;;;;;;;6.05;2.30;;;;;;;19.64;58.38;98037.53;4996765;28;20504;-45
2023/10/20 10:37:34;;;;;;;4.07;2.30;;;;;;;19.70;58.45;98047.34;5002143;28;20050;-45
2023/10/20 10:40:09;;;;;;;2.90;2.10;;;;;;;19.72;58.17;98033.69;5001350;28;20259;-46
2023/10/20 10:42:49;;;;;;;3.20;2.38;;;;;;;19.76;58.50;98036.72;5004168;28;20052;-46
2023/10/20 10:45:23;;;;;;;5.53;2.75;;;;;;;19.76;58.39;98034.03;4960567;28;20057;-44
2023/10/20 10:47:50;;;;;;;;;;;;;;;19.75;57.25;98021.66;5011236;28;20131;-44
2023/10/20 10:50:20;;;;;;;2.60;2.00;;;;;;;19.80;57.53;98021.75;4997572;28;19936;-46
2023/10/20 10:52:47;;;;;;;2.95;2.00;;;;;;;19.81;57.22;98015.31;5003319;28;20053;-46
2023/10/20 10:55:18;;;;;;;4.20;1.60;;;;;;;19.80;57.66;98006.44;5001875;28;20176;-46
2023/10/20 10:57:44;;;;;;;2.33;1.35;;;;;;;19.78;56.95;98003.19;5005227;28;20151;-46
2023/10/20 11:00:15;;;;;;;4.30;1.90;;;;;;;19.77;57.16;97995.34;5002327;28;20073;-46
2023/10/20 11:02:44;;;;;;;2.70;1.42;;;;;;;19.76;57.07;97999.09;5000332;28;20466;-45
2023/10/20 11:05:11;;;;;;;4.68;2.10;;;;;;;19.73;56.68;97997.69;4958102;28;20453;-47
2023/10/20 11:07:38;;;;;;;2.45;1.27;;;;;;;19.72;57.53;97988.00;4999896;28;20049;-46
2023/10/20 11:10:05;;;;;;;3.55;1.70;;;;;;;19.67;57.24;97982.50;4998610;28;20058;-46
2023/10/20 11:12:32;;;;;;;3.40;2.00;;;;;;;19.67;57.86;97964.50;5003206;28;20453;-45
2023/10/20 11:15:06;;;;;;;3.70;2.38;;;;;;;19.67;57.64;97963.69;5003360;28;20085;-45
2023/10/20 11:17:32;;;;;;;5.30;2.83;;;;;;;19.65;58.06;97960.41;5002341;28;21033;-46
2023/10/20 11:19:59;;;;;;;4.78;2.92;;;;;;;19.62;57.25;97966.28;4995865;28;20064;-45
2023/10/20 11:22:26;;;;;;;6.60;3.58;;;;;;;19.55;57.60;97960.97;4992410;28;20057;-47
2023/10/20 11:24:53;;;;;;;11.23;5.72;;;;;;;19.57;58.67;97952.69;4964032;28;20230;-45
2023/10/20 11:27:20;;;;;;;13.43;6.43;;;;;;;19.61;58.49;97945.78;4997452;28;20049;-46
2023/10/20 11:29:49;;;;;;;11.88;5.60;;;;;;;19.60;59.11;97936.91;4996913;28;20104;-46
2023/10/20 11:32:25;;;;;;;12.18;5.50;;;;;;;19.62;58.30;97940.22;5001093;28;20060;-44
2023/10/20 11:34:52;;;;;;;11.93;6.30;;;;;;;19.67;58.40;97939.50;5001310;28;20513;-45
2023/10/20 11:37:19;;;;;;;13.90;6.68;;;;;;;19.72;58.39;97937.75;4998490;28;20438;-45
2023/10/20 11:39:46;;;;;;;12.00;6.63;;;;;;;19.78;58.55;97927.09;4996479;28;20077;-44
2023/10/20 11:42:13;;;;;;;14.80;6.13;;;;;;;19.84;58.40;97920.78;4995678;28;20057;-46
2023/10/20 11:44:40;;;;;;;12.18;5.90;;;;;;;19.89;58.03;97927.09;4994861;28;20135;-45
2023/10/20 11:47:06;;;;;;;11.43;6.25;;;;;;;19.93;58.21;97924.75;4991098;28;20060;-45
2023/10/20 11:49:33;;;;;;;11.07;6.22;;;;;;;19.96;57.77;97924.28;4998789;28;20447;-45
2023/10/20 11:52:02;;;;;;;10.68;6.05;;;;;;;19.96;57.58;97924.28;5002312;28;20081;-47
2023/10/20 11:54:28;;;;;;;10.23;6.18;;;;;;;19.95;57.32;97922.66;4998908;28;20049;-45
2023/10/20 11:56:55;;;;;;;10.07;5.57;;;;;;;19.94;57.97;97921.03;4996950;28;20053;-45
2023/10/20 11:59:21;;;;;;;10.02;5.55;;;;;;;19.93;57.99;97909.44;4997284;28;20443;-45